sensor_id;sensor_type;location;lat;lon;timestamp;P1;durP1;ratioP1;P2;durP2;ratioP2
22660;SDS011;11497;52.222;21.246;2023-01-16T00:01:58;8.60;;;5.80;;
22660;SDS011;11497;52.222;21.246;2023-01-16T00:04:27;10.18;;;5.63;;
22660;SDS011;11497;52.222;21.246;2023-01-16T00:06:55;12.75;;;5.78;;
22660;SDS011;11497;52.222;21.246;2023-01-16T00:09:23;9.75;;;5.15;;
22660;SDS011;11497;52.222;21.246;2023-01-16T00:11:51;10.70;;;5.57;;
22660;SDS011;11497;52.222;21.246;2023-01-16T00:14:19;11.23;;;5.80;;
22660;SDS011;11497;52.222;21.246;2023-01-16T00:16:51;13.25;;;5.85;;
22660;SDS011;11497;52.222;21.246;2023-01-16T00:19:19;11.00;;;5.72;;
22660;SDS011;11497;52.222;21.246;2023-01-16T00:21:47;8.38;;;5.57;;
22660;SDS011;11497;52.222;21.246;2023-01-16T00:24:15;10.80;;;5.90;;
22660;SDS011;11497;52.222;21.246;2023-01-16T00:26:43;9.85;;;6.07;;
22660;SDS011;11497;52.222;21.246;2023-01-16T00:29:11;10.60;;;6.28;;
22660;SDS011;11497;52.222;21.246;2023-01-16T00:31:38;11.43;;;6.30;;
22660;SDS011;11497;52.222;21.246;2023-01-16T00:34:07;9.45;;;6.28;;
22660;SDS011;11497;52.222;21.246;2023-01-16T00:36:34;11.93;;;6.22;;
22660;SDS011;11497;52.222;21.246;2023-01-16T00:39:05;11.10;;;6.60;;
22660;SDS011;11497;52.222;21.246;2023-01-16T00:41:33;13.23;;;7.00;;
22660;SDS011;11497;52.222;21.246;2023-01-16T00:44:01;11.82;;;6.70;;
22660;SDS011;11497;52.222;21.246;2023-01-16T00:46:29;12.27;;;7.70;;
22660;SDS011;11497;52.222;21.246;2023-01-16T00:48:57;11.57;;;7.15;;
22660;SDS011;11497;52.222;21.246;2023-01-16T00:51:25;11.18;;;7.00;;
22660;SDS011;11497;52.222;21.246;2023-01-16T00:53:53;11.90;;;7.20;;
22660;SDS011;11497;52.222;21.246;2023-01-16T00:56:20;11.98;;;7.75;;
22660;SDS011;11497;52.222;21.246;2023-01-16T00:58:48;10.90;;;6.97;;
22660;SDS011;11497;52.222;21.246;2023-01-16T01:01:16;11.63;;;7.30;;
22660;SDS011;11497;52.222;21.246;2023-01-16T01:03:44;12.68;;;7.80;;
22660;SDS011;11497;52.222;21.246;2023-01-16T01:06:12;12.27;;;7.40;;
22660;SDS011;11497;52.222;21.246;2023-01-16T01:08:40;13.65;;;7.55;;
22660;SDS011;11497;52.222;21.246;2023-01-16T01:11:12;12.20;;;7.53;;
22660;SDS011;11497;52.222;21.246;2023-01-16T01:13:41;13.00;;;8.20;;
22660;SDS011;11497;52.222;21.246;2023-01-16T01:16:10;14.13;;;7.65;;
22660;SDS011;11497;52.222;21.246;2023-01-16T01:18:38;12.00;;;8.20;;
22660;SDS011;11497;52.222;21.246;2023-01-16T01:21:24;14.98;;;8.43;;
22660;SDS011;11497;52.222;21.246;2023-01-16T01:23:52;15.43;;;7.93;;
22660;SDS011;11497;52.222;21.246;2023-01-16T01:26:22;14.75;;;8.00;;
22660;SDS011;11497;52.222;21.246;2023-01-16T01:28:50;15.63;;;8.45;;
22660;SDS011;11497;52.222;21.246;2023-01-16T01:31:17;13.13;;;8.25;;
22660;SDS011;11497;52.222;21.246;2023-01-16T01:33:45;12.32;;;7.72;;
22660;SDS011;11497;52.222;21.246;2023-01-16T01:36:13;12.15;;;7.93;;
22660;SDS011;11497;52.222;21.246;2023-01-16T01:38:41;15.30;;;8.32;;
22660;SDS011;11497;52.222;21.246;2023-01-16T01:41:10;14.30;;;8.13;;
22660;SDS011;11497;52.222;21.246;2023-01-16T01:43:48;14.05;;;8.00;;
22660;SDS011;11497;52.222;21.246;2023-01-16T01:48:54;16.85;;;8.32;;
22660;SDS011;11497;52.222;21.246;2023-01-16T01:51:32;15.68;;;7.95;;
22660;SDS011;11497;52.222;21.246;2023-01-16T01:54:16;15.55;;;8.85;;
22660;SDS011;11497;52.222;21.246;2023-01-16T01:56:53;12.40;;;8.10;;
22660;SDS011;11497;52.222;21.246;2023-01-16T01:59:26;15.45;;;8.32;;
22660;SDS011;11497;52.222;21.246;2023-01-16T02:01:57;15.50;;;8.20;;
22660;SDS011;11497;52.222;21.246;2023-01-16T02:04:32;12.32;;;7.90;;
22660;SDS011;11497;52.222;21.246;2023-01-16T02:07:08;15.00;;;8.13;;
22660;SDS011;11497;52.222;21.246;2023-01-16T02:09:40;15.87;;;8.07;;
22660;SDS011;11497;52.222;21.246;2023-01-16T02:14:39;15.20;;;8.45;;
22660;SDS011;11497;52.222;21.246;2023-01-16T02:17:14;14.63;;;8.43;;
22660;SDS011;11497;52.222;21.246;2023-01-16T02:28:24;18.35;;;9.30;;
22660;SDS011;11497;52.222;21.246;2023-01-16T02:33:49;14.52;;;8.55;;
22660;SDS011;11497;52.222;21.246;2023-01-16T02:39:27;15.13;;;8.73;;
22660;SDS011;11497;52.222;21.246;2023-01-16T02:42:32;16.10;;;9.02;;
22660;SDS011;11497;52.222;21.246;2023-01-16T02:45:09;18.38;;;9.02;;
22660;SDS011;11497;52.222;21.246;2023-01-16T02:50:23;15.77;;;8.68;;
22660;SDS011;11497;52.222;21.246;2023-01-16T02:55:47;17.63;;;8.43;;
22660;SDS011;11497;52.222;21.246;2023-01-16T02:58:21;14.55;;;9.15;;
22660;SDS011;11497;52.222;21.246;2023-01-16T03:00:54;18.08;;;9.25;;
22660;SDS011;11497;52.222;21.246;2023-01-16T03:03:47;13.95;;;7.65;;
22660;SDS011;11497;52.222;21.246;2023-01-16T03:12:17;17.77;;;8.93;;
22660;SDS011;11497;52.222;21.246;2023-01-16T03:15:04;16.98;;;8.80;;
22660;SDS011;11497;52.222;21.246;2023-01-16T03:18:06;15.20;;;9.15;;
22660;SDS011;11497;52.222;21.246;2023-01-16T03:23:56;18.88;;;9.75;;
22660;SDS011;11497;52.222;21.246;2023-01-16T03:26:32;17.63;;;9.35;;
22660;SDS011;11497;52.222;21.246;2023-01-16T03:32:06;16.55;;;8.90;;
22660;SDS011;11497;52.222;21.246;2023-01-16T03:35:00;16.65;;;9.25;;
22660;SDS011;11497;52.222;21.246;2023-01-16T03:37:49;16.02;;;8.82;;
22660;SDS011;11497;52.222;21.246;2023-01-16T03:40:26;16.55;;;9.90;;
22660;SDS011;11497;52.222;21.246;2023-01-16T03:43:02;14.50;;;8.98;;
22660;SDS011;11497;52.222;21.246;2023-01-16T03:48:19;16.75;;;8.95;;
22660;SDS011;11497;52.222;21.246;2023-01-16T03:51:06;15.80;;;8.60;;
22660;SDS011;11497;52.222;21.246;2023-01-16T03:53:38;14.50;;;8.40;;
22660;SDS011;11497;52.222;21.246;2023-01-16T03:56:22;16.85;;;9.85;;
22660;SDS011;11497;52.222;21.246;2023-01-16T03:59:11;15.93;;;9.20;;
22660;SDS011;11497;52.222;21.246;2023-01-16T04:01:43;17.50;;;8.95;;
22660;SDS011;11497;52.222;21.246;2023-01-16T04:04:32;17.75;;;9.82;;
22660;SDS011;11497;52.222;21.246;2023-01-16T04:07:19;16.30;;;9.40;;
22660;SDS011;11497;52.222;21.246;2023-01-16T04:09:57;17.17;;;9.27;;
22660;SDS011;11497;52.222;21.246;2023-01-16T04:12:47;15.40;;;9.10;;
22660;SDS011;11497;52.222;21.246;2023-01-16T04:17:48;15.70;;;8.02;;
22660;SDS011;11497;52.222;21.246;2023-01-16T04:20:17;16.60;;;9.18;;
22660;SDS011;11497;52.222;21.246;2023-01-16T04:22:47;15.70;;;8.70;;
22660;SDS011;11497;52.222;21.246;2023-01-16T04:25:17;17.08;;;9.27;;
22660;SDS011;11497;52.222;21.246;2023-01-16T04:27:45;17.90;;;8.68;;
22660;SDS011;11497;52.222;21.246;2023-01-16T04:30:13;14.85;;;9.05;;
22660;SDS011;11497;52.222;21.246;2023-01-16T04:32:42;15.00;;;8.73;;
22660;SDS011;11497;52.222;21.246;2023-01-16T04:35:10;18.38;;;8.80;;
22660;SDS011;11497;52.222;21.246;2023-01-16T04:37:38;20.05;;;8.77;;
22660;SDS011;11497;52.222;21.246;2023-01-16T04:40:06;15.90;;;8.68;;
22660;SDS011;11497;52.222;21.246;2023-01-16T04:42:35;16.15;;;8.95;;
22660;SDS011;11497;52.222;21.246;2023-01-16T04:45:03;17.83;;;8.70;;
22660;SDS011;11497;52.222;21.246;2023-01-16T04:47:31;14.40;;;8.63;;
22660;SDS011;11497;52.222;21.246;2023-01-16T04:49:59;20.08;;;9.20;;
22660;SDS011;11497;52.222;21.246;2023-01-16T04:52:27;17.23;;;9.23;;
22660;SDS011;11497;52.222;21.246;2023-01-16T04:54:55;16.90;;;9.57;;
22660;SDS011;11497;52.222;21.246;2023-01-16T04:57:22;14.02;;;8.43;;
22660;SDS011;11497;52.222;21.246;2023-01-16T04:59:50;15.00;;;8.77;;
22660;SDS011;11497;52.222;21.246;2023-01-16T05:02:18;15.02;;;9.15;;
22660;SDS011;11497;52.222;21.246;2023-01-16T05:04:47;16.40;;;9.23;;
22660;SDS011;11497;52.222;21.246;2023-01-16T05:07:15;17.50;;;9.07;;
22660;SDS011;11497;52.222;21.246;2023-01-16T05:09:42;15.98;;;8.70;;
22660;SDS011;11497;52.222;21.246;2023-01-16T05:12:10;17.38;;;9.63;;
22660;SDS011;11497;52.222;21.246;2023-01-16T05:14:38;19.75;;;9.07;;
22660;SDS011;11497;52.222;21.246;2023-01-16T05:17:06;17.00;;;9.98;;
22660;SDS011;11497;52.222;21.246;2023-01-16T05:19:34;16.10;;;9.55;;
22660;SDS011;11497;52.222;21.246;2023-01-16T05:22:02;16.33;;;8.90;;
22660;SDS011;11497;52.222;21.246;2023-01-16T05:24:29;16.45;;;10.00;;
22660;SDS011;11497;52.222;21.246;2023-01-16T05:26:57;15.38;;;9.70;;
22660;SDS011;11497;52.222;21.246;2023-01-16T05:29:25;14.95;;;8.88;;
22660;SDS011;11497;52.222;21.246;2023-01-16T05:31:53;24.60;;;9.32;;
22660;SDS011;11497;52.222;21.246;2023-01-16T05:34:20;15.90;;;9.32;;
22660;SDS011;11497;52.222;21.246;2023-01-16T05:36:48;16.58;;;9.13;;
22660;SDS011;11497;52.222;21.246;2023-01-16T05:39:16;15.65;;;9.40;;
22660;SDS011;11497;52.222;21.246;2023-01-16T05:41:44;17.15;;;9.98;;
22660;SDS011;11497;52.222;21.246;2023-01-16T05:44:12;16.20;;;9.48;;
22660;SDS011;11497;52.222;21.246;2023-01-16T05:46:40;16.92;;;9.27;;
22660;SDS011;11497;52.222;21.246;2023-01-16T05:49:08;14.48;;;8.88;;
22660;SDS011;11497;52.222;21.246;2023-01-16T05:51:36;18.25;;;10.00;;
22660;SDS011;11497;52.222;21.246;2023-01-16T05:54:04;16.50;;;9.32;;
22660;SDS011;11497;52.222;21.246;2023-01-16T05:56:32;16.73;;;9.40;;
22660;SDS011;11497;52.222;21.246;2023-01-16T05:58:59;17.15;;;9.07;;
22660;SDS011;11497;52.222;21.246;2023-01-16T06:01:27;17.48;;;8.75;;
22660;SDS011;11497;52.222;21.246;2023-01-16T06:03:55;21.08;;;9.57;;
22660;SDS011;11497;52.222;21.246;2023-01-16T06:06:23;15.75;;;9.25;;
22660;SDS011;11497;52.222;21.246;2023-01-16T06:08:50;16.80;;;8.98;;
22660;SDS011;11497;52.222;21.246;2023-01-16T06:11:18;16.25;;;9.10;;
22660;SDS011;11497;52.222;21.246;2023-01-16T06:13:46;18.52;;;10.38;;
22660;SDS011;11497;52.222;21.246;2023-01-16T06:16:14;18.40;;;10.00;;
22660;SDS011;11497;52.222;21.246;2023-01-16T06:18:42;18.23;;;9.75;;
22660;SDS011;11497;52.222;21.246;2023-01-16T06:21:10;15.82;;;9.43;;
22660;SDS011;11497;52.222;21.246;2023-01-16T06:23:37;19.00;;;10.02;;
22660;SDS011;11497;52.222;21.246;2023-01-16T06:26:05;17.85;;;10.27;;
22660;SDS011;11497;52.222;21.246;2023-01-16T06:28:36;16.58;;;9.68;;
22660;SDS011;11497;52.222;21.246;2023-01-16T06:31:05;19.60;;;10.27;;
22660;SDS011;11497;52.222;21.246;2023-01-16T06:33:33;17.15;;;9.88;;
22660;SDS011;11497;52.222;21.246;2023-01-16T06:36:01;20.67;;;10.68;;
22660;SDS011;11497;52.222;21.246;2023-01-16T06:38:30;19.48;;;10.32;;
22660;SDS011;11497;52.222;21.246;2023-01-16T06:40:58;16.40;;;9.02;;
22660;SDS011;11497;52.222;21.246;2023-01-16T06:43:26;15.93;;;9.55;;
22660;SDS011;11497;52.222;21.246;2023-01-16T06:45:55;18.38;;;10.15;;
22660;SDS011;11497;52.222;21.246;2023-01-16T06:48:23;18.00;;;10.25;;
22660;SDS011;11497;52.222;21.246;2023-01-16T06:50:52;17.70;;;9.93;;
22660;SDS011;11497;52.222;21.246;2023-01-16T06:53:20;22.48;;;10.60;;
22660;SDS011;11497;52.222;21.246;2023-01-16T06:55:48;18.08;;;10.20;;
22660;SDS011;11497;52.222;21.246;2023-01-16T06:58:16;16.77;;;10.00;;
22660;SDS011;11497;52.222;21.246;2023-01-16T07:00:43;18.15;;;10.48;;
22660;SDS011;11497;52.222;21.246;2023-01-16T07:03:11;19.90;;;11.07;;
22660;SDS011;11497;52.222;21.246;2023-01-16T07:05:39;18.50;;;10.00;;
22660;SDS011;11497;52.222;21.246;2023-01-16T07:08:07;19.48;;;11.15;;
22660;SDS011;11497;52.222;21.246;2023-01-16T07:10:35;18.67;;;10.65;;
22660;SDS011;11497;52.222;21.246;2023-01-16T07:13:03;16.80;;;9.30;;
22660;SDS011;11497;52.222;21.246;2023-01-16T07:15:32;16.35;;;10.18;;
22660;SDS011;11497;52.222;21.246;2023-01-16T07:18:18;20.10;;;10.27;;
22660;SDS011;11497;52.222;21.246;2023-01-16T07:21:07;21.35;;;10.95;;
22660;SDS011;11497;52.222;21.246;2023-01-16T07:24:02;18.20;;;10.35;;
22660;SDS011;11497;52.222;21.246;2023-01-16T07:26:33;17.45;;;10.25;;
22660;SDS011;11497;52.222;21.246;2023-01-16T07:29:03;18.08;;;10.90;;
22660;SDS011;11497;52.222;21.246;2023-01-16T07:31:31;19.50;;;10.30;;
22660;SDS011;11497;52.222;21.246;2023-01-16T07:34:00;17.33;;;10.57;;
22660;SDS011;11497;52.222;21.246;2023-01-16T07:36:29;21.27;;;11.70;;
22660;SDS011;11497;52.222;21.246;2023-01-16T07:38:57;21.42;;;11.27;;
22660;SDS011;11497;52.222;21.246;2023-01-16T07:41:25;22.38;;;11.57;;
22660;SDS011;11497;52.222;21.246;2023-01-16T07:43:53;22.35;;;11.85;;
22660;SDS011;11497;52.222;21.246;2023-01-16T07:46:21;25.25;;;13.07;;
22660;SDS011;11497;52.222;21.246;2023-01-16T07:48:49;24.52;;;13.02;;
22660;SDS011;11497;52.222;21.246;2023-01-16T07:51:19;27.77;;;13.43;;
22660;SDS011;11497;52.222;21.246;2023-01-16T07:53:47;24.27;;;13.65;;
22660;SDS011;11497;52.222;21.246;2023-01-16T07:56:15;24.50;;;13.27;;
22660;SDS011;11497;52.222;21.246;2023-01-16T07:58:43;27.20;;;15.63;;
22660;SDS011;11497;52.222;21.246;2023-01-16T08:01:11;24.73;;;14.35;;
22660;SDS011;11497;52.222;21.246;2023-01-16T08:03:39;26.33;;;14.75;;
22660;SDS011;11497;52.222;21.246;2023-01-16T08:06:07;25.05;;;14.05;;
22660;SDS011;11497;52.222;21.246;2023-01-16T08:08:35;24.70;;;12.93;;
22660;SDS011;11497;52.222;21.246;2023-01-16T08:11:03;21.05;;;13.05;;
22660;SDS011;11497;52.222;21.246;2023-01-16T08:13:51;21.98;;;11.95;;
22660;SDS011;11497;52.222;21.246;2023-01-16T08:16:19;20.55;;;11.93;;
22660;SDS011;11497;52.222;21.246;2023-01-16T08:18:46;18.85;;;10.85;;
22660;SDS011;11497;52.222;21.246;2023-01-16T08:21:16;19.15;;;10.85;;
22660;SDS011;11497;52.222;21.246;2023-01-16T08:23:44;18.17;;;10.75;;
22660;SDS011;11497;52.222;21.246;2023-01-16T08:26:12;20.33;;;10.52;;
22660;SDS011;11497;52.222;21.246;2023-01-16T08:28:40;22.50;;;11.20;;
22660;SDS011;11497;52.222;21.246;2023-01-16T08:31:09;19.27;;;10.85;;
22660;SDS011;11497;52.222;21.246;2023-01-16T08:33:40;16.25;;;10.45;;
22660;SDS011;11497;52.222;21.246;2023-01-16T08:36:10;19.48;;;10.55;;
22660;SDS011;11497;52.222;21.246;2023-01-16T08:38:39;18.00;;;10.90;;
22660;SDS011;11497;52.222;21.246;2023-01-16T08:41:07;18.52;;;10.57;;
22660;SDS011;11497;52.222;21.246;2023-01-16T08:43:54;16.60;;;10.43;;
22660;SDS011;11497;52.222;21.246;2023-01-16T08:46:41;16.33;;;9.73;;
22660;SDS011;11497;52.222;21.246;2023-01-16T08:49:29;18.15;;;10.20;;
22660;SDS011;11497;52.222;21.246;2023-01-16T08:52:15;17.02;;;10.35;;
22660;SDS011;11497;52.222;21.246;2023-01-16T08:54:43;17.25;;;10.23;;
22660;SDS011;11497;52.222;21.246;2023-01-16T08:57:11;18.60;;;10.13;;
22660;SDS011;11497;52.222;21.246;2023-01-16T08:59:39;22.40;;;11.10;;
22660;SDS011;11497;52.222;21.246;2023-01-16T09:02:07;18.38;;;10.20;;
22660;SDS011;11497;52.222;21.246;2023-01-16T09:04:38;17.23;;;9.70;;
22660;SDS011;11497;52.222;21.246;2023-01-16T09:07:06;17.83;;;8.95;;
22660;SDS011;11497;52.222;21.246;2023-01-16T09:09:33;19.67;;;10.52;;
22660;SDS011;11497;52.222;21.246;2023-01-16T09:12:02;18.88;;;9.93;;
22660;SDS011;11497;52.222;21.246;2023-01-16T09:14:48;13.23;;;8.63;;
22660;SDS011;11497;52.222;21.246;2023-01-16T09:17:16;15.68;;;9.90;;
22660;SDS011;11497;52.222;21.246;2023-01-16T09:19:44;17.52;;;10.00;;
22660;SDS011;11497;52.222;21.246;2023-01-16T09:22:12;14.25;;;9.75;;
22660;SDS011;11497;52.222;21.246;2023-01-16T09:24:39;14.85;;;9.50;;
22660;SDS011;11497;52.222;21.246;2023-01-16T09:27:07;14.43;;;8.95;;
22660;SDS011;11497;52.222;21.246;2023-01-16T09:29:35;17.92;;;9.68;;
22660;SDS011;11497;52.222;21.246;2023-01-16T09:32:03;17.70;;;9.98;;
22660;SDS011;11497;52.222;21.246;2023-01-16T09:34:35;18.92;;;9.95;;
22660;SDS011;11497;52.222;21.246;2023-01-16T09:37:05;17.40;;;10.23;;
22660;SDS011;11497;52.222;21.246;2023-01-16T09:39:33;19.20;;;10.50;;
22660;SDS011;11497;52.222;21.246;2023-01-16T09:45:10;18.63;;;10.63;;
22660;SDS011;11497;52.222;21.246;2023-01-16T09:47:49;17.77;;;10.85;;
22660;SDS011;11497;52.222;21.246;2023-01-16T09:50:40;23.25;;;10.38;;
22660;SDS011;11497;52.222;21.246;2023-01-16T09:53:23;18.80;;;9.88;;
22660;SDS011;11497;52.222;21.246;2023-01-16T09:56:20;19.08;;;11.18;;
22660;SDS011;11497;52.222;21.246;2023-01-16T09:59:19;21.88;;;10.45;;
22660;SDS011;11497;52.222;21.246;2023-01-16T10:01:56;22.92;;;12.07;;
22660;SDS011;11497;52.222;21.246;2023-01-16T10:04:35;21.38;;;10.80;;
22660;SDS011;11497;52.222;21.246;2023-01-16T10:12:52;21.05;;;11.60;;
22660;SDS011;11497;52.222;21.246;2023-01-16T10:15:51;21.88;;;11.10;;
22660;SDS011;11497;52.222;21.246;2023-01-16T10:18:48;20.92;;;11.75;;
22660;SDS011;11497;52.222;21.246;2023-01-16T10:32:12;19.35;;;11.20;;
22660;SDS011;11497;52.222;21.246;2023-01-16T10:37:15;21.60;;;11.27;;
22660;SDS011;11497;52.222;21.246;2023-01-16T10:39:43;21.25;;;12.55;;
22660;SDS011;11497;52.222;21.246;2023-01-16T10:42:17;21.98;;;13.18;;
22660;SDS011;11497;52.222;21.246;2023-01-16T10:45:15;22.05;;;12.02;;
22660;SDS011;11497;52.222;21.246;2023-01-16T10:48:16;22.58;;;12.25;;
22660;SDS011;11497;52.222;21.246;2023-01-16T10:51:03;23.02;;;12.23;;
22660;SDS011;11497;52.222;21.246;2023-01-16T10:53:34;23.75;;;12.18;;
22660;SDS011;11497;52.222;21.246;2023-01-16T10:56:04;23.40;;;12.82;;
22660;SDS011;11497;52.222;21.246;2023-01-16T10:58:38;22.10;;;11.68;;
22660;SDS011;11497;52.222;21.246;2023-01-16T11:06:19;22.27;;;12.10;;
22660;SDS011;11497;52.222;21.246;2023-01-16T11:09:02;21.90;;;13.00;;
22660;SDS011;11497;52.222;21.246;2023-01-16T11:11:36;23.33;;;12.27;;
22660;SDS011;11497;52.222;21.246;2023-01-16T11:14:30;22.83;;;12.88;;
22660;SDS011;11497;52.222;21.246;2023-01-16T11:17:29;26.23;;;12.50;;
22660;SDS011;11497;52.222;21.246;2023-01-16T11:20:31;22.88;;;12.55;;
22660;SDS011;11497;52.222;21.246;2023-01-16T11:23:19;24.95;;;12.43;;
22660;SDS011;11497;52.222;21.246;2023-01-16T11:25:50;25.55;;;13.23;;
22660;SDS011;11497;52.222;21.246;2023-01-16T11:28:21;25.25;;;12.30;;
22660;SDS011;11497;52.222;21.246;2023-01-16T11:30:52;26.30;;;12.85;;
22660;SDS011;11497;52.222;21.246;2023-01-16T11:33:28;20.95;;;10.20;;
22660;SDS011;11497;52.222;21.246;2023-01-16T11:36:02;20.75;;;11.32;;
22660;SDS011;11497;52.222;21.246;2023-01-16T11:38:35;15.40;;;9.05;;
22660;SDS011;11497;52.222;21.246;2023-01-16T11:41:10;18.52;;;9.93;;
22660;SDS011;11497;52.222;21.246;2023-01-16T11:43:38;19.08;;;10.93;;
22660;SDS011;11497;52.222;21.246;2023-01-16T11:49:14;18.40;;;10.13;;
22660;SDS011;11497;52.222;21.246;2023-01-16T11:51:44;19.52;;;10.20;;
22660;SDS011;11497;52.222;21.246;2023-01-16T11:54:24;19.65;;;10.98;;
22660;SDS011;11497;52.222;21.246;2023-01-16T11:57:07;20.77;;;11.38;;
22660;SDS011;11497;52.222;21.246;2023-01-16T12:14:29;21.10;;;12.35;;
22660;SDS011;11497;52.222;21.246;2023-01-16T12:20:07;26.15;;;12.88;;
22660;SDS011;11497;52.222;21.246;2023-01-16T12:28:38;29.15;;;15.55;;
22660;SDS011;11497;52.222;21.246;2023-01-16T12:39:48;23.90;;;13.77;;
22660;SDS011;11497;52.222;21.246;2023-01-16T12:45:37;25.27;;;14.27;;
22660;SDS011;11497;52.222;21.246;2023-01-16T12:49:06;24.55;;;14.85;;
22660;SDS011;11497;52.222;21.246;2023-01-16T12:51:17;22.08;;;11.93;;
22660;SDS011;11497;52.222;21.246;2023-01-16T12:59:25;28.15;;;15.52;;
22660;SDS011;11497;52.222;21.246;2023-01-16T13:02:08;30.48;;;16.42;;
22660;SDS011;11497;52.222;21.246;2023-01-16T13:05:01;31.77;;;15.40;;
22660;SDS011;11497;52.222;21.246;2023-01-16T13:07:33;30.77;;;15.90;;
22660;SDS011;11497;52.222;21.246;2023-01-16T13:13:03;29.65;;;17.08;;
22660;SDS011;11497;52.222;21.246;2023-01-16T13:15:54;34.15;;;18.05;;
22660;SDS011;11497;52.222;21.246;2023-01-16T13:18:27;31.73;;;17.20;;
22660;SDS011;11497;52.222;21.246;2023-01-16T13:21:02;33.67;;;17.23;;
22660;SDS011;11497;52.222;21.246;2023-01-16T13:26:10;34.63;;;18.58;;
22660;SDS011;11497;52.222;21.246;2023-01-16T13:28:43;34.90;;;18.40;;
22660;SDS011;11497;52.222;21.246;2023-01-16T13:31:44;39.85;;;20.30;;
22660;SDS011;11497;52.222;21.246;2023-01-16T13:34:21;34.63;;;18.83;;
22660;SDS011;11497;52.222;21.246;2023-01-16T13:43:23;30.23;;;17.48;;
22660;SDS011;11497;52.222;21.246;2023-01-16T13:46:17;35.20;;;18.00;;
22660;SDS011;11497;52.222;21.246;2023-01-16T13:48:51;35.47;;;20.60;;
22660;SDS011;11497;52.222;21.246;2023-01-16T13:51:21;42.42;;;23.45;;
22660;SDS011;11497;52.222;21.246;2023-01-16T13:53:54;38.88;;;21.73;;
22660;SDS011;11497;52.222;21.246;2023-01-16T13:56:25;38.90;;;21.42;;
22660;SDS011;11497;52.222;21.246;2023-01-16T13:59:05;41.88;;;21.23;;
22660;SDS011;11497;52.222;21.246;2023-01-16T14:06:59;37.42;;;20.25;;
22660;SDS011;11497;52.222;21.246;2023-01-16T14:12:43;43.88;;;22.52;;
22660;SDS011;11497;52.222;21.246;2023-01-16T14:24:06;48.03;;;23.88;;
22660;SDS011;11497;52.222;21.246;2023-01-16T14:29:22;42.45;;;23.13;;
22660;SDS011;11497;52.222;21.246;2023-01-16T14:40:27;43.85;;;23.65;;
22660;SDS011;11497;52.222;21.246;2023-01-16T14:43:29;45.67;;;25.73;;
22660;SDS011;11497;52.222;21.246;2023-01-16T14:52:50;48.97;;;25.60;;
22660;SDS011;11497;52.222;21.246;2023-01-16T14:55:48;51.28;;;27.15;;
22660;SDS011;11497;52.222;21.246;2023-01-16T14:59:02;52.00;;;25.83;;
22660;SDS011;11497;52.222;21.246;2023-01-16T15:01:23;47.13;;;25.45;;
22660;SDS011;11497;52.222;21.246;2023-01-16T15:04:13;49.38;;;25.42;;
22660;SDS011;11497;52.222;21.246;2023-01-16T15:06:44;47.25;;;25.00;;
22660;SDS011;11497;52.222;21.246;2023-01-16T15:09:16;49.45;;;25.60;;
22660;SDS011;11497;52.222;21.246;2023-01-16T15:11:55;43.75;;;23.90;;
22660;SDS011;11497;52.222;21.246;2023-01-16T15:14:26;39.13;;;20.75;;
22660;SDS011;11497;52.222;21.246;2023-01-16T15:17:03;40.13;;;20.52;;
22660;SDS011;11497;52.222;21.246;2023-01-16T15:22:50;35.08;;;17.00;;
22660;SDS011;11497;52.222;21.246;2023-01-16T15:27:53;26.05;;;15.20;;
22660;SDS011;11497;52.222;21.246;2023-01-16T15:30:33;31.10;;;16.70;;
22660;SDS011;11497;52.222;21.246;2023-01-16T15:33:02;29.70;;;15.35;;
22660;SDS011;11497;52.222;21.246;2023-01-16T15:35:55;26.75;;;15.38;;
22660;SDS011;11497;52.222;21.246;2023-01-16T15:38:24;32.58;;;17.40;;
22660;SDS011;11497;52.222;21.246;2023-01-16T15:40:52;28.92;;;16.58;;
22660;SDS011;11497;52.222;21.246;2023-01-16T15:43:23;28.13;;;16.65;;
22660;SDS011;11497;52.222;21.246;2023-01-16T15:46:30;34.22;;;16.85;;
22660;SDS011;11497;52.222;21.246;2023-01-16T15:49:22;33.60;;;17.67;;
22660;SDS011;11497;52.222;21.246;2023-01-16T15:52:07;34.92;;;19.20;;
22660;SDS011;11497;52.222;21.246;2023-01-16T15:54:36;38.28;;;20.48;;
22660;SDS011;11497;52.222;21.246;2023-01-16T15:57:04;34.80;;;19.15;;
22660;SDS011;11497;52.222;21.246;2023-01-16T15:59:54;35.60;;;19.88;;
22660;SDS011;11497;52.222;21.246;2023-01-16T16:02:24;33.05;;;17.27;;
22660;SDS011;11497;52.222;21.246;2023-01-16T16:04:59;35.42;;;19.17;;
22660;SDS011;11497;52.222;21.246;2023-01-16T16:07:28;35.92;;;18.65;;
22660;SDS011;11497;52.222;21.246;2023-01-16T16:09:57;37.35;;;20.27;;
22660;SDS011;11497;52.222;21.246;2023-01-16T16:12:28;36.05;;;19.88;;
22660;SDS011;11497;52.222;21.246;2023-01-16T16:15:15;34.45;;;19.75;;
22660;SDS011;11497;52.222;21.246;2023-01-16T16:18:17;37.50;;;20.48;;
22660;SDS011;11497;52.222;21.246;2023-01-16T16:20:47;39.70;;;20.65;;
22660;SDS011;11497;52.222;21.246;2023-01-16T16:23:20;37.60;;;18.92;;
22660;SDS011;11497;52.222;21.246;2023-01-16T16:25:53;39.53;;;20.23;;
22660;SDS011;11497;52.222;21.246;2023-01-16T16:28:27;36.92;;;19.90;;
22660;SDS011;11497;52.222;21.246;2023-01-16T16:31:05;42.05;;;21.98;;
22660;SDS011;11497;52.222;21.246;2023-01-16T16:33:33;37.00;;;18.35;;
22660;SDS011;11497;52.222;21.246;2023-01-16T16:36:01;37.78;;;21.50;;
22660;SDS011;11497;52.222;21.246;2023-01-16T16:38:31;37.55;;;19.02;;
22660;SDS011;11497;52.222;21.246;2023-01-16T16:43:49;39.25;;;18.80;;
22660;SDS011;11497;52.222;21.246;2023-01-16T16:48:55;35.88;;;19.25;;
22660;SDS011;11497;52.222;21.246;2023-01-16T16:51:44;35.20;;;19.23;;
22660;SDS011;11497;52.222;21.246;2023-01-16T16:54:13;34.17;;;18.27;;
22660;SDS011;11497;52.222;21.246;2023-01-16T16:56:44;35.28;;;18.10;;
22660;SDS011;11497;52.222;21.246;2023-01-16T16:59:25;34.70;;;19.20;;
22660;SDS011;11497;52.222;21.246;2023-01-16T17:01:56;38.25;;;19.65;;
22660;SDS011;11497;52.222;21.246;2023-01-16T17:04:30;38.47;;;19.70;;
22660;SDS011;11497;52.222;21.246;2023-01-16T17:06:58;38.42;;;20.30;;
22660;SDS011;11497;52.222;21.246;2023-01-16T17:09:26;32.90;;;17.58;;
22660;SDS011;11497;52.222;21.246;2023-01-16T17:11:59;37.13;;;19.85;;
22660;SDS011;11497;52.222;21.246;2023-01-16T17:14:39;39.80;;;19.75;;
22660;SDS011;11497;52.222;21.246;2023-01-16T17:17:13;34.22;;;19.48;;
22660;SDS011;11497;52.222;21.246;2023-01-16T17:22:12;39.08;;;19.73;;
22660;SDS011;11497;52.222;21.246;2023-01-16T17:24:40;36.45;;;19.73;;
22660;SDS011;11497;52.222;21.246;2023-01-16T17:27:08;32.97;;;18.65;;
22660;SDS011;11497;52.222;21.246;2023-01-16T17:29:37;35.20;;;19.00;;
22660;SDS011;11497;52.222;21.246;2023-01-16T17:32:43;37.67;;;19.05;;
22660;SDS011;11497;52.222;21.246;2023-01-16T17:35:03;35.30;;;19.00;;
22660;SDS011;11497;52.222;21.246;2023-01-16T17:37:31;36.25;;;17.85;;
22660;SDS011;11497;52.222;21.246;2023-01-16T17:39:59;34.50;;;17.67;;
22660;SDS011;11497;52.222;21.246;2023-01-16T17:42:27;34.53;;;18.50;;
22660;SDS011;11497;52.222;21.246;2023-01-16T17:45:59;37.65;;;19.50;;
22660;SDS011;11497;52.222;21.246;2023-01-16T17:48:27;37.42;;;19.50;;